createdAt,value
2022-08-12T00:01:07.936Z,10.40
2022-08-12T00:06:09.803Z,9.90
2022-08-12T00:11:12.474Z,7.68
2022-08-12T00:16:14.328Z,8.05
2022-08-12T00:21:19.041Z,8.43
2022-08-12T00:26:24.439Z,7.03
2022-08-12T00:31:26.181Z,8.55
2022-08-12T00:36:34.949Z,9.90
2022-08-12T00:41:38.017Z,9.50
2022-08-12T00:47:00.313Z,10.48
2022-08-12T00:52:03.118Z,9.65
2022-08-12T00:57:17.086Z,9.65
2022-08-12T01:02:29.928Z,7.88
2022-08-12T01:07:35.236Z,8.15
2022-08-12T01:12:38.630Z,7.72
2022-08-12T01:17:45.112Z,9.02
2022-08-12T01:23:26.414Z,9.38
2022-08-12T01:28:30.595Z,9.65
2022-08-12T01:33:57.971Z,10.80
2022-08-12T01:39:00.440Z,11.82
2022-08-12T01:44:03.071Z,11.50
2022-08-12T01:49:13.177Z,8.38
2022-08-12T01:54:18.590Z,7.82
2022-08-12T01:59:41.395Z,11.13
2022-08-12T02:04:50.383Z,8.75
2022-08-12T02:10:04.708Z,10.33
2022-08-12T02:15:31.426Z,8.55
2022-08-12T02:20:51.951Z,8.23
2022-08-12T02:26:01.178Z,10.50
2022-08-12T02:31:05.727Z,9.52
2022-08-12T02:36:07.362Z,8.63
2022-08-12T02:41:11.547Z,8.95
2022-08-12T02:46:15.649Z,9.65
2022-08-12T02:51:24.082Z,8.05
2022-08-12T02:56:27.638Z,9.52
2022-08-12T03:01:32.085Z,10.68
2022-08-12T03:06:59.217Z,9.98
2022-08-12T03:12:04.467Z,10.43
2022-08-12T03:17:19.674Z,10.80
2022-08-12T03:22:22.471Z,9.73
2022-08-12T03:27:26.759Z,12.93
2022-08-12T03:32:36.139Z,11.65
2022-08-12T03:37:48.853Z,9.90
2022-08-12T03:42:50.294Z,11.00
2022-08-12T03:47:58.978Z,11.07
2022-08-12T03:53:29.957Z,12.50
2022-08-12T03:58:32.017Z,10.05
2022-08-12T04:03:34.559Z,13.43
2022-08-12T04:08:36.872Z,11.45
2022-08-12T04:13:38.372Z,11.55
2022-08-12T04:18:40.559Z,11.40
2022-08-12T04:23:46.209Z,13.32
2022-08-12T04:28:49.725Z,12.82
2022-08-12T04:33:51.605Z,11.52
2022-08-12T04:38:57.715Z,13.25
2022-08-12T04:44:02.616Z,12.85
2022-08-12T04:49:05.123Z,15.00
2022-08-12T04:54:06.628Z,17.27
2022-08-12T04:59:08.035Z,15.05
2022-08-12T05:04:10.608Z,13.70
2022-08-12T05:09:13.626Z,12.18
2022-08-12T05:14:15.735Z,15.43
2022-08-12T05:19:18.721Z,13.13
2022-08-12T05:24:24.250Z,14.20
2022-08-12T05:30:06.334Z,12.88
2022-08-12T05:34:48.718Z,12.95
2022-08-12T05:39:50.848Z,13.73
2022-08-12T05:44:52.326Z,10.40
2022-08-12T05:49:53.785Z,10.75
2022-08-12T05:54:57.780Z,10.60
2022-08-12T06:00:16.742Z,10.32
2022-08-12T06:05:20.586Z,11.68
2022-08-12T06:10:31.566Z,11.52
2022-08-12T06:15:35.696Z,8.75
2022-08-12T06:20:38.001Z,11.43
2022-08-12T06:25:43.128Z,9.93
2022-08-12T06:30:57.248Z,8.98
2022-08-12T06:36:04.402Z,10.43
2022-08-12T06:41:05.980Z,8.65
2022-08-12T06:46:07.401Z,9.00
2022-08-12T06:51:13.612Z,9.45
2022-08-12T06:56:19.925Z,8.30
2022-08-12T07:01:23.093Z,13.80
2022-08-12T07:06:32.731Z,9.38
2022-08-12T07:16:43.271Z,10.32
2022-08-12T07:22:01.885Z,7.68
2022-08-12T07:32:08.294Z,11.23
2022-08-12T07:37:14.999Z,7.40
2022-08-12T07:48:00.198Z,8.27
2022-08-12T07:53:01.982Z,5.45
2022-08-12T07:58:03.574Z,7.10
2022-08-12T08:03:12.951Z,5.70
2022-08-12T08:13:42.722Z,8.07
2022-08-12T08:18:44.761Z,5.95
2022-08-12T08:23:46.917Z,7.88
2022-08-12T08:28:58.251Z,7.40
2022-08-12T08:34:27.525Z,4.72
2022-08-12T08:39:31.668Z,6.97
2022-08-12T08:50:28.147Z,5.00
2022-08-12T08:56:04.162Z,6.35
2022-08-12T09:06:37.364Z,4.35
2022-08-12T09:17:21.267Z,5.80
2022-08-12T09:28:18.234Z,4.95
2022-08-12T09:34:27.494Z,6.40
2022-08-12T09:38:59.076Z,4.43
2022-08-12T09:44:04.837Z,6.55
2022-08-12T09:49:16.312Z,7.50
2022-08-12T09:54:34.327Z,5.55
2022-08-12T10:00:12.549Z,7.10
2022-08-12T10:04:58.188Z,5.13
2022-08-12T10:10:00.222Z,4.78
2022-08-12T10:15:02.716Z,6.60
2022-08-12T10:20:04.823Z,10.65
2022-08-12T10:25:17.740Z,4.35
2022-08-12T10:30:42.143Z,4.53
2022-08-12T10:35:41.194Z,6.13
2022-08-12T10:40:43.564Z,5.85
2022-08-12T10:45:46.823Z,4.95
2022-08-12T10:51:00.320Z,4.47
2022-08-12T10:56:04.863Z,5.10
2022-08-12T11:01:50.441Z,5.05
2022-08-12T11:07:10.116Z,5.00
2022-08-12T11:12:36.792Z,4.95
2022-08-12T11:17:34.150Z,7.70
2022-08-12T11:22:35.588Z,4.40
2022-08-12T11:27:37.074Z,8.98
2022-08-12T11:32:39.505Z,4.57
2022-08-12T11:37:57.930Z,5.82
2022-08-12T11:43:19.019Z,5.43
2022-08-12T11:48:27.060Z,5.45
2022-08-12T11:53:57.198Z,5.32
2022-08-12T12:04:11.658Z,4.82
2022-08-12T12:09:13.129Z,4.63
2022-08-12T12:14:18.088Z,6.67
2022-08-12T12:19:19.468Z,4.07
2022-08-12T12:24:22.452Z,5.53
2022-08-12T12:30:13.914Z,5.70
2022-08-12T12:35:44.305Z,4.38
2022-08-12T12:40:08.513Z,3.67
2022-08-12T12:45:19.481Z,4.57
2022-08-12T12:50:26.851Z,5.57
2022-08-12T12:55:37.341Z,4.30
2022-08-12T13:00:39.063Z,4.00
2022-08-12T13:05:54.049Z,4.05
2022-08-12T13:11:00.087Z,4.00
2022-08-12T13:16:01.524Z,4.95
2022-08-12T13:21:06.983Z,6.10
2022-08-12T13:26:19.397Z,4.50
2022-08-12T13:31:21.100Z,5.10
2022-08-12T13:36:26.523Z,3.33
2022-08-12T13:41:27.941Z,5.00
2022-08-12T13:46:29.458Z,5.65
2022-08-12T13:51:40.918Z,3.92
2022-08-12T13:56:42.745Z,4.93
2022-08-12T14:01:51.431Z,5.03
2022-08-12T14:06:53.649Z,3.22
2022-08-12T14:11:59.600Z,4.53
2022-08-12T14:17:01.325Z,3.40
2022-08-12T14:22:06.824Z,4.60
2022-08-12T14:27:10.301Z,4.22
2022-08-12T14:32:16.750Z,5.82
2022-08-12T14:37:57.828Z,4.65
2022-08-12T14:42:41.407Z,4.30
2022-08-12T14:47:50.170Z,4.20
2022-08-12T14:58:13.547Z,4.57
2022-08-12T15:03:15.400Z,4.50
2022-08-12T15:08:24.608Z,5.85
2022-08-12T15:13:33.902Z,5.57
2022-08-12T15:18:41.113Z,3.47
2022-08-12T15:23:56.898Z,5.40
2022-08-12T15:28:58.593Z,4.53
2022-08-12T15:34:00.073Z,3.90
2022-08-12T15:39:01.486Z,5.53
2022-08-12T15:44:19.996Z,4.85
2022-08-12T15:49:24.519Z,6.13
2022-08-12T15:54:33.960Z,5.95
2022-08-12T16:00:00.839Z,3.67
2022-08-12T16:04:59.473Z,4.70
2022-08-12T16:10:05.696Z,6.97
2022-08-12T16:20:17.212Z,7.82
2022-08-12T16:25:22.655Z,4.80
2022-08-12T16:30:32.814Z,6.15
2022-08-12T16:35:36.170Z,5.35
2022-08-12T16:40:40.943Z,7.90
2022-08-12T16:46:04.434Z,3.92
2022-08-12T16:51:11.063Z,4.93
2022-08-12T16:56:15.410Z,5.78
2022-08-12T17:01:17.272Z,5.55
2022-08-12T17:06:22.405Z,8.10
2022-08-12T17:11:30.244Z,7.68
2022-08-12T17:16:32.099Z,5.28
2022-08-12T17:21:40.886Z,5.63
2022-08-12T17:26:54.407Z,6.10
2022-08-12T17:32:01.338Z,4.13
2022-08-12T17:37:05.507Z,4.90
2022-08-12T17:42:31.122Z,5.72
2022-08-12T17:47:35.727Z,7.18
2022-08-12T17:52:50.788Z,4.60
2022-08-12T17:57:54.718Z,5.30
2022-08-12T18:02:56.417Z,6.43
2022-08-12T18:07:58.355Z,5.72
2022-08-12T18:12:59.786Z,6.30
2022-08-12T18:18:05.392Z,5.72
2022-08-12T18:23:12.078Z,6.32
2022-08-12T18:28:16.667Z,5.15
2022-08-12T18:33:21.974Z,5.97
2022-08-12T18:38:26.320Z,9.35
2022-08-12T18:43:27.867Z,4.13
2022-08-12T18:48:29.797Z,7.22
2022-08-12T18:54:07.526Z,6.57
2022-08-12T18:58:59.933Z,6.13
2022-08-12T19:04:04.768Z,3.90
2022-08-12T19:09:10.091Z,5.15
2022-08-12T19:14:12.069Z,6.03
2022-08-12T19:19:17.402Z,7.15
2022-08-12T19:24:22.695Z,6.72
2022-08-12T19:29:26.208Z,7.85
2022-08-12T19:40:08.960Z,11.13
2022-08-12T19:45:41.741Z,9.48
2022-08-12T19:50:50.356Z,9.20
2022-08-12T19:55:55.543Z,9.02
2022-08-12T20:00:56.965Z,9.10
2022-08-12T20:06:07.232Z,8.48
2022-08-12T20:12:09.853Z,8.38
2022-08-12T20:21:59.044Z,8.55
2022-08-12T20:27:02.108Z,5.45
2022-08-12T20:32:05.477Z,4.78
2022-08-12T20:37:12.819Z,4.82
2022-08-12T20:42:14.674Z,6.93
2022-08-12T20:47:19.652Z,5.43
2022-08-12T20:52:22.012Z,6.32
2022-08-12T20:57:24.222Z,5.20
2022-08-12T21:02:30.622Z,7.97
2022-08-12T21:07:34.236Z,4.47
2022-08-12T21:12:35.981Z,4.32
2022-08-12T21:18:08.245Z,9.05
2022-08-12T21:23:00.841Z,7.18
2022-08-12T21:28:02.777Z,7.43
2022-08-12T21:33:04.712Z,4.68
2022-08-12T21:38:12.315Z,4.32
2022-08-12T21:43:13.750Z,6.22
2022-08-12T21:48:16.828Z,6.65
2022-08-12T21:53:20.556Z,6.07
2022-08-12T21:58:22.640Z,5.03
2022-08-12T22:03:55.039Z,4.63
2022-08-12T22:08:51.676Z,6.22
2022-08-12T22:14:07.339Z,4.80
2022-08-12T22:19:10.031Z,4.72
2022-08-12T22:24:18.307Z,6.07
2022-08-12T22:29:28.716Z,5.18
2022-08-12T22:34:30.261Z,7.93
2022-08-12T22:39:34.995Z,6.10
2022-08-12T22:44:54.134Z,4.13
2022-08-12T22:49:59.491Z,5.85
2022-08-12T22:55:05.546Z,3.85
2022-08-12T23:00:12.758Z,5.28
2022-08-12T23:05:57.207Z,2.53
2022-08-12T23:10:48.285Z,4.45
2022-08-12T23:15:54.766Z,5.72
2022-08-12T23:20:57.121Z,4.35
2022-08-12T23:25:58.920Z,3.42
2022-08-12T23:31:04.618Z,4.18
2022-08-12T23:36:08.135Z,4.28
2022-08-12T23:41:14.885Z,5.10
2022-08-12T23:46:19.270Z,6.07
2022-08-12T23:51:24.283Z,3.65
2022-08-12T23:56:26.089Z,5.25
